Time;durP1;ratioP1;P1;durP2;ratioP2;P2;SDS_P1;SDS_P2;PMS_P1;PMS_P2;Temp;Humidity;BMP_temperature;BMP_pressure;BME280_temperature;BME280_humidity;BME280_pressure;Samples;Min_cycle;Max_cycle;Signal;HPM_P1;HPM_P2
2022/01/11 00:00:27;;;;;;;20.52;10.85;;;-0.10;99.90;;;;;;5054262;28;20150;-71
2022/01/11 00:02:55;;;;;;;20.38;10.63;;;-0.10;99.90;;;;;;5054139;28;20024;-71
2022/01/11 00:05:34;;;;;;;22.10;10.80;;;-0.10;99.90;;;;;;5054144;28;20017;-71
2022/01/11 00:08:00;;;;;;;19.75;10.13;;;0.00;99.90;;;;;;5054099;28;20462;-71
2022/01/11 00:10:38;;;;;;;19.58;10.18;;;0.00;99.90;;;;;;5053867;28;20053;-71
2022/01/11 00:13:04;;;;;;;19.10;9.70;;;-0.10;99.90;;;;;;5053677;28;20021;-70
2022/01/11 00:15:30;;;;;;;19.85;10.68;;;0.00;99.90;;;;;;5052721;28;20492;-70
2022/01/11 00:17:59;;;;;;;20.92;9.52;;;0.00;99.90;;;;;;5054203;28;20052;-70
2022/01/11 00:20:27;;;;;;;17.08;8.65;;;0.00;99.90;;;;;;5053966;28;20424;-71
2022/01/11 00:25:31;;;;;;;19.40;9.70;;;0.00;99.90;;;;;;5053552;28;20035;-71
2022/01/11 00:27:57;;;;;;;21.20;10.02;;;0.00;99.90;;;;;;5052441;28;20025;-71
2022/01/11 00:30:29;;;;;;;19.65;10.23;;;0.00;99.90;;;;;;5054052;28;20049;-71
2022/01/11 00:32:57;;;;;;;18.70;9.57;;;0.00;99.90;;;;;;5053768;28;20114;-71
2022/01/11 00:35:27;;;;;;;18.00;9.52;;;0.10;99.90;;;;;;5053932;28;20021;-71
2022/01/11 00:37:54;;;;;;;18.55;10.35;;;0.10;99.90;;;;;;5053683;28;20131;-71
2022/01/11 00:40:20;;;;;;;17.30;9.57;;;0.10;99.90;;;;;;5053518;28;20397;-70
2022/01/11 00:42:45;;;;;;;18.25;9.77;;;0.10;99.90;;;;;;5053469;28;20021;-71
2022/01/11 00:45:12;;;;;;;21.17;10.75;;;0.10;99.90;;;;;;5053802;28;20469;-71
2022/01/11 00:47:39;;;;;;;20.63;11.15;;;0.10;99.90;;;;;;5053668;28;20029;-70
2022/01/11 00:50:07;;;;;;;18.30;10.43;;;0.10;99.90;;;;;;5053432;28;20029;-70
2022/01/11 00:52:33;;;;;;;20.92;11.70;;;0.10;99.90;;;;;;5053661;28;20416;-70
2022/01/11 00:54:59;;;;;;;22.00;10.98;;;0.00;99.90;;;;;;5053415;28;20013;-70
2022/01/11 00:57:26;;;;;;;23.42;12.00;;;0.00;99.90;;;;;;5053355;28;20029;-70
2022/01/11 00:59:52;;;;;;;23.20;12.75;;;0.00;99.90;;;;;;5053377;28;20385;-71
2022/01/11 01:02:18;;;;;;;22.98;12.05;;;0.00;99.90;;;;;;5053221;28;20024;-70
2022/01/11 01:04:44;;;;;;;23.92;12.98;;;0.00;99.90;;;;;;5053271;28;20040;-70
2022/01/11 01:07:09;;;;;;;23.00;12.00;;;0.00;99.90;;;;;;5053109;28;20021;-70
2022/01/11 01:09:57;;;;;;;21.40;11.32;;;0.00;99.90;;;;;;5052957;28;20024;-71
2022/01/11 01:12:23;;;;;;;21.65;11.18;;;-0.10;99.90;;;;;;5053180;28;20477;-71
2022/01/11 01:14:48;;;;;;;20.35;11.35;;;-0.10;99.90;;;;;;5053136;28;20029;-71
2022/01/11 01:17:14;;;;;;;22.88;12.57;;;-0.20;99.90;;;;;;5053171;28;20064;-71
2022/01/11 01:19:40;;;;;;;20.00;11.32;;;-0.20;99.90;;;;;;5053089;28;20470;-70
2022/01/11 01:22:05;;;;;;;18.42;10.07;;;-0.20;99.90;;;;;;5053262;28;20493;-71
2022/01/11 01:24:31;;;;;;;19.92;10.48;;;-0.10;99.90;;;;;;5055486;28;20107;-71
2022/01/11 01:26:57;;;;;;;24.67;12.38;;;-0.10;99.90;;;;;;5057212;28;20036;-71
2022/01/11 01:29:23;;;;;;;21.05;11.43;;;-0.20;99.90;;;;;;5057708;28;20114;-71
2022/01/11 01:31:49;;;;;;;19.63;10.65;;;-0.20;99.90;;;;;;5057272;28;20017;-71
2022/01/11 01:34:14;;;;;;;18.05;9.55;;;-0.20;99.90;;;;;;5057593;28;20055;-71
2022/01/11 01:36:40;;;;;;;17.98;8.05;;;-0.20;99.90;;;;;;5057052;28;20025;-72
2022/01/11 01:39:06;;;;;;;14.15;7.75;;;-0.20;99.90;;;;;;5055941;28;20504;-71
2022/01/11 01:41:32;;;;;;;14.38;7.28;;;-0.20;99.90;;;;;;5055273;28;20025;-71
2022/01/11 01:44:02;;;;;;;17.35;9.25;;;-0.20;99.90;;;;;;5057108;28;20064;-71
2022/01/11 01:46:28;;;;;;;14.48;7.90;;;-0.20;99.90;;;;;;5056937;28;20021;-72
2022/01/11 01:48:58;;;;;;;16.00;8.88;;;-0.30;99.90;;;;;;5057407;28;20063;-71
2022/01/11 01:51:23;;;;;;;15.02;7.88;;;-0.30;99.90;;;;;;5076978;28;20012;-71
2022/01/11 01:53:51;;;;;;;14.40;8.02;;;-0.30;99.90;;;;;;5076718;28;20027;-72
2022/01/11 01:56:20;;;;;;;15.65;8.00;;;-0.30;99.90;;;;;;5075357;28;20036;-72
2022/01/11 01:58:47;;;;;;;14.23;7.43;;;-0.30;99.90;;;;;;5076551;28;20028;-72
2022/01/11 02:01:14;;;;;;;14.65;7.57;;;-0.30;99.90;;;;;;5076458;28;20499;-72
2022/01/11 02:03:41;;;;;;;14.32;7.80;;;-0.30;99.90;;;;;;5076425;28;20422;-72
2022/01/11 02:06:16;;;;;;;15.40;7.68;;;-0.30;99.90;;;;;;5076378;28;20051;-72
2022/01/11 02:08:45;;;;;;;14.00;7.65;;;-0.30;99.90;;;;;;5076677;28;20029;-71
2022/01/11 02:11:11;;;;;;;14.82;7.53;;;-0.30;99.90;;;;;;5076119;28;20028;-71
2022/01/11 02:13:37;;;;;;;25.08;11.95;;;-0.40;99.90;;;;;;5076216;28;20025;-71
2022/01/11 02:16:04;;;;;;;18.65;10.13;;;-0.40;99.90;;;;;;5076575;28;20493;-71
2022/01/11 02:18:30;;;;;;;16.90;9.45;;;-0.40;99.90;;;;;;5074996;28;20025;-71
2022/01/11 02:20:58;;;;;;;17.70;9.45;;;-0.40;99.90;;;;;;5076135;28;20503;-71
2022/01/11 02:23:26;;;;;;;15.88;8.38;;;-0.30;99.90;;;;;;5075975;28;20112;-71
2022/01/11 02:25:52;;;;;;;16.42;7.90;;;-0.30;99.90;;;;;;5075867;28;20377;-71
2022/01/11 02:28:21;;;;;;;13.18;7.18;;;-0.30;99.90;;;;;;5075974;28;20028;-71
2022/01/11 02:30:48;;;;;;;13.25;6.78;;;-0.30;99.90;;;;;;5076001;28;20020;-71
2022/01/11 02:33:29;;;;;;;15.82;8.88;;;-0.30;99.90;;;;;;5074663;28;20098;-71
2022/01/11 02:35:55;;;;;;;18.83;9.13;;;-0.30;99.90;;;;;;5076048;28;20012;-71
2022/01/11 02:38:20;;;;;;;18.55;8.73;;;-0.30;99.90;;;;;;5075861;28;20040;-71
2022/01/11 02:40:46;;;;;;;19.27;9.73;;;-0.30;99.90;;;;;;5075756;28;20024;-71
2022/01/11 02:43:12;;;;;;;17.92;9.00;;;-0.30;99.90;;;;;;5075718;28;20029;-71
2022/01/11 02:45:37;;;;;;;20.35;10.23;;;-0.30;99.90;;;;;;5075789;28;20028;-71
2022/01/11 02:48:03;;;;;;;19.63;9.75;;;-0.30;99.90;;;;;;5075827;28;20047;-71
2022/01/11 02:50:29;;;;;;;17.23;9.10;;;-0.40;99.90;;;;;;5075557;28;20043;-71
2022/01/11 02:52:55;;;;;;;18.80;8.90;;;-0.40;99.90;;;;;;5075569;28;20098;-71
2022/01/11 02:55:21;;;;;;;17.15;9.25;;;-0.40;99.90;;;;;;5075310;28;20028;-71
2022/01/11 02:57:46;;;;;;;17.77;9.15;;;-0.40;99.90;;;;;;5075781;28;20056;-71
2022/01/11 03:00:16;;;;;;;17.23;8.90;;;-0.30;99.90;;;;;;5075524;28;20028;-71
2022/01/11 03:02:42;;;;;;;17.27;10.07;;;-0.30;99.90;;;;;;5075603;28;20436;-71
2022/01/11 03:05:10;;;;;;;18.17;9.93;;;-0.30;99.90;;;;;;5075624;28;20020;-71
2022/01/11 03:07:36;;;;;;;17.70;9.43;;;-0.30;99.90;;;;;;5075495;28;20032;-71
2022/01/11 03:10:14;;;;;;;17.40;9.07;;;-0.30;99.90;;;;;;5073751;28;20591;-71
2022/01/11 03:12:42;;;;;;;16.50;8.90;;;-0.30;99.90;;;;;;5075275;28;20103;-71
2022/01/11 03:15:09;;;;;;;16.45;8.68;;;-0.30;99.90;;;;;;5075218;28;20094;-71
2022/01/11 03:17:34;;;;;;;16.13;8.05;;;-0.30;99.90;;;;;;5074203;28;20154;-71
2022/01/11 03:20:00;;;;;;;14.93;7.65;;;-0.30;99.90;;;;;;5075087;28;20103;-71
2022/01/11 03:22:25;;;;;;;14.25;8.15;;;-0.30;99.90;;;;;;5075051;28;20024;-71
2022/01/11 03:24:51;;;;;;;15.35;8.73;;;-0.30;99.90;;;;;;5074928;28;20032;-71
2022/01/11 03:27:17;;;;;;;16.63;8.98;;;-0.40;99.90;;;;;;5075267;28;20096;-71
2022/01/11 03:29:43;;;;;;;17.80;9.40;;;-0.40;99.90;;;;;;5075387;28;20021;-71
2022/01/11 03:32:09;;;;;;;16.25;8.73;;;-0.40;99.90;;;;;;5073936;28;20029;-71
2022/01/11 03:34:35;;;;;;;15.88;9.15;;;-0.40;99.90;;;;;;5075144;28;20032;-71
2022/01/11 03:37:01;;;;;;;16.80;8.85;;;-0.40;99.90;;;;;;5075113;28;20023;-72
2022/01/11 03:39:28;;;;;;;18.08;9.35;;;-0.40;99.90;;;;;;5073604;28;20111;-71
2022/01/11 03:41:54;;;;;;;17.20;9.20;;;-0.50;99.90;;;;;;5074710;28;20094;-71
2022/01/11 03:44:19;;;;;;;18.73;9.40;;;-0.50;99.90;;;;;;5074660;28;20028;-71
2022/01/11 03:46:45;;;;;;;16.40;8.75;;;-0.50;99.90;;;;;;5074149;28;20028;-71
2022/01/11 03:49:11;;;;;;;15.45;8.50;;;-0.50;99.90;;;;;;5074546;28;20409;-71
2022/01/11 03:51:39;;;;;;;15.38;8.43;;;-0.60;99.90;;;;;;5074607;28;20027;-71
2022/01/11 03:54:13;;;;;;;14.50;7.72;;;-0.60;99.90;;;;;;5074531;28;20020;-71
2022/01/11 03:56:38;;;;;;;14.48;7.90;;;-0.60;99.90;;;;;;5074332;28;20021;-71
2022/01/11 03:59:08;;;;;;;13.90;7.47;;;-0.60;99.90;;;;;;5074617;28;20025;-71
2022/01/11 04:01:35;;;;;;;14.90;7.53;;;-0.60;99.90;;;;;;5074345;28;20512;-71
2022/01/11 04:04:01;;;;;;;13.68;7.15;;;-0.60;99.90;;;;;;5074666;28;20028;-71
2022/01/11 04:06:27;;;;;;;15.77;8.50;;;-0.60;99.90;;;;;;5074062;28;20032;-71
2022/01/11 04:08:53;;;;;;;14.68;7.85;;;-0.60;99.90;;;;;;5074552;28;20381;-71
2022/01/11 04:11:19;;;;;;;15.40;8.50;;;-0.70;99.90;;;;;;5073739;28;20030;-71
2022/01/11 04:13:45;;;;;;;13.85;7.22;;;-0.70;99.90;;;;;;5074251;28;20461;-71
2022/01/11 04:16:11;;;;;;;14.55;7.93;;;-0.70;99.90;;;;;;5074026;28;20096;-71
2022/01/11 04:18:36;;;;;;;16.95;8.65;;;-0.80;99.90;;;;;;5073882;28;20027;-71
2022/01/11 04:21:03;;;;;;;16.13;8.35;;;-0.90;99.90;;;;;;5074147;28;20032;-71
2022/01/11 04:23:30;;;;;;;16.40;8.38;;;-0.90;99.90;;;;;;5073578;28;20475;-71
2022/01/11 04:25:55;;;;;;;15.13;8.18;;;-0.90;99.90;;;;;;5073582;28;20059;-71
2022/01/11 04:28:23;;;;;;;14.13;7.80;;;-0.90;99.90;;;;;;5074047;28;20049;-71
2022/01/11 04:30:50;;;;;;;13.68;7.75;;;-0.90;99.90;;;;;;5073674;28;20047;-71
2022/01/11 04:33:16;;;;;;;14.02;7.78;;;-0.90;99.90;;;;;;5073944;28;20017;-71
2022/01/11 04:35:44;;;;;;;15.20;7.72;;;-1.00;99.90;;;;;;5073957;28;20524;-70
2022/01/11 04:38:10;;;;;;;12.10;6.95;;;-1.00;99.90;;;;;;5073951;28;20553;-71
2022/01/11 04:40:36;;;;;;;12.27;7.10;;;-1.00;99.90;;;;;;5073801;28;20024;-70
2022/01/11 04:43:02;;;;;;;13.73;7.28;;;-1.00;99.90;;;;;;5073580;28;20024;-71
2022/01/11 04:45:28;;;;;;;17.55;7.70;;;-1.00;99.90;;;;;;5073814;28;20059;-71
2022/01/11 04:47:56;;;;;;;17.17;8.90;;;-1.10;99.90;;;;;;5073683;28;20028;-71
2022/01/11 04:50:24;;;;;;;19.70;10.68;;;-1.10;99.90;;;;;;5073772;28;20016;-71
2022/01/11 04:52:50;;;;;;;19.92;10.57;;;-1.10;99.90;;;;;;5073378;28;20139;-70
2022/01/11 04:55:16;;;;;;;17.70;10.30;;;-1.10;99.90;;;;;;5073713;28;20484;-71
2022/01/11 04:57:42;;;;;;;17.48;10.05;;;-1.10;99.90;;;;;;5071377;28;20024;-71
2022/01/11 05:00:09;;;;;;;19.15;10.13;;;-1.10;99.90;;;;;;5073162;28;20016;-71
2022/01/11 05:02:35;;;;;;;15.63;8.23;;;-1.10;99.90;;;;;;5073368;28;20043;-71
2022/01/11 05:05:00;;;;;;;17.45;7.68;;;-1.10;99.90;;;;;;5072063;28;20028;-71
2022/01/11 05:07:26;;;;;;;13.55;7.03;;;-1.10;99.90;;;;;;5073208;28;20021;-71
2022/01/11 05:09:53;;;;;;;13.23;6.72;;;-1.20;99.90;;;;;;5073622;28;20078;-71
2022/01/11 05:12:19;;;;;;;14.10;6.13;;;-1.20;99.90;;;;;;5071755;28;20063;-71
2022/01/11 05:14:45;;;;;;;11.43;6.00;;;-1.20;99.90;;;;;;5073437;28;20423;-71
2022/01/11 05:17:11;;;;;;;10.15;5.63;;;-1.20;99.90;;;;;;5054555;28;20025;-71
2022/01/11 05:19:36;;;;;;;10.52;5.55;;;-1.30;99.90;;;;;;5053381;28;20120;-71
2022/01/11 05:22:04;;;;;;;9.88;5.47;;;-1.30;99.90;;;;;;5053106;28;20032;-71
2022/01/11 05:24:29;;;;;;;11.20;5.65;;;-1.40;99.90;;;;;;5053090;28;20100;-71
2022/01/11 05:26:55;;;;;;;11.65;4.82;;;-1.40;99.90;;;;;;5051567;28;20119;-71
2022/01/11 05:29:21;;;;;;;10.00;5.22;;;-1.40;99.90;;;;;;5052732;28;20029;-71
2022/01/11 05:31:47;;;;;;;9.35;4.93;;;-1.40;99.90;;;;;;5051475;28;20025;-71
2022/01/11 05:34:13;;;;;;;9.05;5.05;;;-1.50;99.90;;;;;;5052988;28;20048;-71
2022/01/11 05:36:38;;;;;;;10.13;5.35;;;-1.50;99.90;;;;;;5072383;28;20048;-70
2022/01/11 05:39:04;;;;;;;13.20;5.85;;;-1.50;99.90;;;;;;5072179;28;20043;-70
2022/01/11 05:41:31;;;;;;;52.13;18.80;;;-1.50;99.90;;;;;;5052707;28;20058;-71
2022/01/11 05:43:56;;;;;;;63.38;23.42;;;-1.50;99.90;;;;;;5051311;28;20055;-71
2022/01/11 05:46:22;;;;;;;70.20;24.83;;;-1.50;99.90;;;;;;5052490;28;20025;-71
2022/01/11 05:48:48;;;;;;;77.20;26.67;;;-1.60;99.90;;;;;;5051594;28;20033;-71
2022/01/11 05:51:15;;;;;;;67.35;25.13;;;-1.60;99.90;;;;;;5052797;28;20025;-71
2022/01/11 05:53:41;;;;;;;59.42;21.88;;;-1.60;99.90;;;;;;5052770;28;20048;-71
2022/01/11 05:56:07;;;;;;;39.22;16.75;;;-1.60;99.90;;;;;;5051450;28;20025;-71
2022/01/11 05:58:33;;;;;;;31.23;11.60;;;-1.50;99.90;;;;;;5053029;28;20481;-71
2022/01/11 06:00:59;;;;;;;20.40;9.48;;;-1.50;99.90;;;;;;5052746;28;20021;-71
2022/01/11 06:03:25;;;;;;;21.67;9.02;;;-1.60;99.90;;;;;;5052908;28;20072;-71
2022/01/11 06:05:51;;;;;;;16.60;7.85;;;-1.60;99.90;;;;;;5053270;28;20024;-72
2022/01/11 06:08:16;;;;;;;15.90;7.75;;;-1.60;99.90;;;;;;5052907;28;20025;-71
2022/01/11 06:10:44;;;;;;;16.02;7.88;;;-1.60;99.90;;;;;;5055202;28;20384;-72
2022/01/11 06:13:10;;;;;;;13.65;7.15;;;-1.60;99.90;;;;;;5056299;28;20362;-71
2022/01/11 06:15:36;;;;;;;14.93;7.95;;;-1.60;99.90;;;;;;5056309;28;20021;-72
2022/01/11 06:18:02;;;;;;;14.50;7.90;;;-1.60;99.90;;;;;;5055008;28;20036;-72
2022/01/11 06:20:28;;;;;;;17.13;9.20;;;-1.70;99.90;;;;;;5056504;28;20469;-71
2022/01/11 06:22:54;;;;;;;17.10;8.15;;;-1.60;99.90;;;;;;5054863;28;20032;-71
2022/01/11 06:25:20;;;;;;;15.07;8.15;;;-1.60;99.90;;;;;;5056060;28;20091;-72
2022/01/11 06:27:46;;;;;;;17.98;9.10;;;-1.60;99.90;;;;;;5056136;28;20033;-71
2022/01/11 06:30:12;;;;;;;12.35;6.53;;;-1.60;99.90;;;;;;5056291;28;20029;-71
2022/01/11 06:32:38;;;;;;;12.23;6.07;;;-1.60;99.90;;;;;;5055970;28;20492;-72
2022/01/11 06:35:05;;;;;;;13.20;5.95;;;-1.60;99.90;;;;;;5055969;28;20116;-71
2022/01/11 06:37:31;;;;;;;11.77;5.60;;;-1.70;99.90;;;;;;5055899;28;20088;-71
2022/01/11 06:39:57;;;;;;;11.32;6.05;;;-1.60;99.90;;;;;;5054600;28;20492;-71
2022/01/11 06:42:23;;;;;;;11.73;5.75;;;-1.60;99.90;;;;;;5055600;28;20096;-72
2022/01/11 06:44:48;;;;;;;11.75;5.95;;;-1.70;99.90;;;;;;5054497;28;20017;-71
2022/01/11 06:47:14;;;;;;;10.63;5.63;;;-1.70;99.90;;;;;;5055987;28;20461;-71
2022/01/11 06:49:40;;;;;;;11.55;5.68;;;-1.70;99.90;;;;;;5056129;28;20025;-72
2022/01/11 06:52:06;;;;;;;13.48;6.30;;;-1.70;99.90;;;;;;5055836;28;20108;-71
2022/01/11 06:54:32;;;;;;;12.40;6.22;;;-1.80;99.90;;;;;;5055614;28;20028;-71
2022/01/11 06:56:58;;;;;;;11.20;5.88;;;-1.80;99.90;;;;;;5055310;28;20092;-71
2022/01/11 06:59:23;;;;;;;10.60;5.50;;;-1.70;99.90;;;;;;5055524;28;20036;-71
2022/01/11 07:01:49;;;;;;;11.02;6.50;;;-1.70;99.90;;;;;;5054117;28;20021;-72
2022/01/11 07:04:15;;;;;;;10.02;5.40;;;-1.70;99.90;;;;;;5055380;28;20021;-71
2022/01/11 07:06:41;;;;;;;13.48;5.60;;;-1.80;99.90;;;;;;5054098;28;20029;-72
2022/01/11 07:09:07;;;;;;;11.77;5.95;;;-1.90;99.90;;;;;;5055557;28;20025;-71
2022/01/11 07:11:33;;;;;;;11.63;6.80;;;-1.80;99.90;;;;;;5054937;28;20025;-71
2022/01/11 07:14:01;;;;;;;9.40;5.60;;;-1.90;99.90;;;;;;5055219;28;20385;-71
2022/01/11 07:16:27;;;;;;;10.50;5.65;;;-1.90;99.90;;;;;;5055155;28;20017;-72
2022/01/11 07:18:52;;;;;;;11.30;6.32;;;-1.90;99.90;;;;;;5055107;28;20098;-71
2022/01/11 07:21:18;;;;;;;13.55;7.20;;;-1.90;99.90;;;;;;5053965;28;20064;-71
2022/01/11 07:23:44;;;;;;;17.55;8.88;;;-1.90;99.90;;;;;;5055074;28;20068;-72
2022/01/11 07:26:09;;;;;;;22.85;12.15;;;-1.80;99.90;;;;;;5054702;28;20029;-72
2022/01/11 07:28:35;;;;;;;16.00;9.23;;;-1.90;99.90;;;;;;5054856;28;20082;-71
2022/01/11 07:31:02;;;;;;;18.20;9.32;;;-1.90;99.90;;;;;;5054888;28;20059;-71
2022/01/11 07:33:27;;;;;;;15.27;8.20;;;-1.90;99.90;;;;;;5054720;28;20021;-71
2022/01/11 07:35:53;;;;;;;19.00;9.20;;;-2.00;99.90;;;;;;5054754;28;20028;-72
2022/01/11 07:38:19;;;;;;;17.92;9.63;;;-2.00;99.90;;;;;;5054740;28;20021;-72
2022/01/11 07:40:45;;;;;;;16.67;9.35;;;-2.10;99.90;;;;;;5054467;28;20035;-72
2022/01/11 07:43:11;;;;;;;17.17;9.82;;;-2.10;99.90;;;;;;5054853;28;20029;-71
2022/01/11 07:45:36;;;;;;;22.25;12.20;;;-2.10;99.90;;;;;;5054619;28;20028;-71
2022/01/11 07:48:02;;;;;;;23.40;12.38;;;-2.10;99.90;;;;;;5054530;28;20359;-71
2022/01/11 07:50:28;;;;;;;18.58;10.25;;;-2.10;99.90;;;;;;5054482;28;20135;-72
2022/01/11 07:52:53;;;;;;;17.52;10.25;;;-2.00;99.90;;;;;;5054429;28;20474;-71
2022/01/11 07:55:19;;;;;;;20.38;11.60;;;-1.90;99.90;;;;;;5054974;28;20120;-71
2022/01/11 07:57:45;;;;;;;20.10;11.75;;;-1.80;99.90;;;;;;5054139;28;20021;-71
2022/01/11 08:00:12;;;;;;;19.95;11.75;;;-1.60;99.90;;;;;;5054874;28;20021;-71
2022/01/11 08:02:38;;;;;;;20.08;12.00;;;-1.50;99.90;;;;;;5054323;28;20083;-71
2022/01/11 08:05:05;;;;;;;16.73;10.07;;;-1.40;99.90;;;;;;5054221;28;20051;-71
2022/01/11 08:07:31;;;;;;;15.45;8.85;;;-1.30;99.90;;;;;;5054147;28;20091;-71
2022/01/11 08:09:57;;;;;;;15.18;8.52;;;-1.20;99.90;;;;;;5054147;28;20532;-71
2022/01/11 08:12:23;;;;;;;17.25;8.60;;;-1.10;99.90;;;;;;5053825;28;20120;-71
2022/01/11 08:14:49;;;;;;;19.83;8.82;;;-1.10;99.90;;;;;;5052843;28;20488;-71
2022/01/11 08:17:16;;;;;;;16.42;8.65;;;-1.10;99.90;;;;;;5054580;28;20025;-71
2022/01/11 08:19:44;;;;;;;25.42;13.27;;;-1.00;99.90;;;;;;5054003;28;20024;-71
2022/01/11 08:22:10;;;;;;;25.27;13.57;;;-1.00;99.90;;;;;;5054145;28;20425;-71
2022/01/11 08:24:38;;;;;;;22.10;13.13;;;-0.90;99.90;;;;;;5053837;28;20082;-71
2022/01/11 08:27:04;;;;;;;19.02;11.52;;;-0.80;99.90;;;;;;5053582;28;20040;-71
2022/01/11 08:29:30;;;;;;;18.45;10.88;;;-0.80;99.90;;;;;;5053939;28;20111;-71
2022/01/11 08:31:56;;;;;;;15.60;10.00;;;-0.70;99.90;;;;;;5053753;28;20056;-71
2022/01/11 08:34:22;;;;;;;20.08;10.48;;;-0.70;99.90;;;;;;5052451;28;20025;-71
2022/01/11 08:36:48;;;;;;;17.02;10.13;;;-0.60;99.90;;;;;;5052426;28;20024;-71
2022/01/11 08:39:15;;;;;;;19.42;9.73;;;-0.60;99.90;;;;;;5053966;28;20076;-71
2022/01/11 08:41:41;;;;;;;17.80;9.35;;;-0.60;99.90;;;;;;5053312;28;20032;-71
2022/01/11 08:44:09;;;;;;;16.70;9.35;;;-0.60;99.90;;;;;;5053568;28;20025;-71
2022/01/11 08:46:37;;;;;;;17.85;9.25;;;-0.60;99.90;;;;;;5053678;28;20021;-71
2022/01/11 08:49:04;;;;;;;17.80;9.80;;;-0.50;99.90;;;;;;5053360;28;20028;-71
2022/01/11 08:51:29;;;;;;;14.90;8.45;;;-0.40;99.90;;;;;;5053399;28;20025;-71
2022/01/11 08:53:55;;;;;;;15.93;8.52;;;-0.40;99.90;;;;;;5053829;28;20354;-71
2022/01/11 08:56:21;;;;;;;16.67;8.13;;;-0.40;99.90;;;;;;5053132;28;20048;-71
2022/01/11 08:58:47;;;;;;;13.18;6.90;;;-0.30;99.90;;;;;;5053385;28;20060;-71
2022/01/11 09:01:12;;;;;;;13.38;7.05;;;-0.30;99.90;;;;;;5053333;28;20025;-71
2022/01/11 09:03:39;;;;;;;13.68;7.10;;;-0.30;99.90;;;;;;5053372;28;20393;-71
2022/01/11 09:06:07;;;;;;;13.18;7.63;;;-0.20;99.90;;;;;;5053186;28;20037;-71
2022/01/11 09:08:37;;;;;;;21.52;9.93;;;-0.20;99.90;;;;;;5053285;28;20154;-71
2022/01/11 09:11:04;;;;;;;19.55;9.27;;;-0.10;99.90;;;;;;5053063;28;20087;-71
2022/01/11 09:13:30;;;;;;;19.58;9.85;;;-0.10;99.90;;;;;;5053541;28;20017;-71
2022/01/11 09:15:56;;;;;;;19.77;10.23;;;0.00;99.90;;;;;;5053522;28;20385;-71
2022/01/11 09:18:22;;;;;;;20.90;10.10;;;0.10;99.90;;;;;;5053257;28;20017;-71
2022/01/11 09:20:48;;;;;;;19.77;9.88;;;0.10;99.90;;;;;;5053198;28;20059;-71
2022/01/11 09:23:14;;;;;;;16.92;9.40;;;0.20;99.90;;;;;;5052952;28;20067;-71
2022/01/11 09:25:40;;;;;;;16.60;8.45;;;0.20;99.90;;;;;;5053398;28;20037;-71
2022/01/11 09:28:06;;;;;;;17.88;9.15;;;0.30;99.90;;;;;;5052786;28;20029;-71
2022/01/11 09:30:32;;;;;;;16.65;9.07;;;0.30;99.90;;;;;;5053057;28;20032;-71
2022/01/11 09:32:57;;;;;;;19.95;10.52;;;0.30;99.90;;;;;;5052972;28;20033;-71
2022/01/11 09:35:24;;;;;;;18.50;10.05;;;0.20;99.90;;;;;;5051726;28;20367;-71
2022/01/11 09:37:50;;;;;;;17.30;9.32;;;0.10;99.90;;;;;;5053193;28;20477;-71
2022/01/11 09:40:16;;;;;;;17.60;9.63;;;0.10;99.90;;;;;;5051593;28;20025;-71
2022/01/11 09:42:43;;;;;;;19.02;9.70;;;0.10;99.90;;;;;;5052570;28;20021;-71
2022/01/11 09:45:11;;;;;;;23.77;12.57;;;0.10;99.90;;;;;;5055110;28;20021;-71
2022/01/11 09:47:39;;;;;;;25.40;12.57;;;0.10;99.90;;;;;;5056673;28;20170;-71
2022/01/11 09:50:08;;;;;;;58.17;27.35;;;0.10;99.90;;;;;;5056709;28;20472;-71
2022/01/11 09:52:35;;;;;;;46.17;22.33;;;0.10;99.90;;;;;;5056919;28;20028;-71
2022/01/11 09:55:01;;;;;;;33.38;17.00;;;0.10;99.90;;;;;;5056641;28;20021;-71
2022/01/11 09:57:26;;;;;;;33.45;17.20;;;0.10;99.90;;;;;;5056356;28;20024;-71
2022/01/11 09:59:52;;;;;;;29.25;14.65;;;0.20;99.90;;;;;;5056872;28;20048;-71
2022/01/11 10:02:18;;;;;;;26.08;14.10;;;0.20;99.90;;;;;;5056801;28;20021;-71
2022/01/11 10:04:44;;;;;;;24.83;13.82;;;0.30;99.90;;;;;;5056836;28;20029;-71
2022/01/11 10:07:11;;;;;;;26.63;13.68;;;0.40;99.90;;;;;;5056815;28;20018;-71
2022/01/11 10:09:49;;;;;;;27.23;13.95;;;0.50;99.90;;;;;;5056633;28;20063;-71
2022/01/11 10:12:18;;;;;;;26.05;13.85;;;0.60;99.90;;;;;;5056349;28;20025;-71
2022/01/11 10:14:55;;;;;;;29.85;14.65;;;0.70;99.90;;;;;;5056952;28;20053;-71
2022/01/11 10:17:23;;;;;;;27.45;13.43;;;0.70;99.90;;;;;;5055087;28;20477;-71
2022/01/11 10:20:09;;;;;;;29.88;13.68;;;0.80;99.90;;;;;;5056220;28;20029;-71
2022/01/11 10:22:43;;;;;;;25.85;13.02;;;1.00;99.90;;;;;;5054911;28;20401;-71
2022/01/11 10:25:09;;;;;;;31.35;14.63;;;1.00;99.90;;;;;;5056062;28;20032;-71
2022/01/11 10:27:36;;;;;;;20.30;12.57;;;1.10;99.90;;;;;;5054546;28;20419;-71
2022/01/11 10:30:12;;;;;;;34.40;15.00;;;1.10;99.90;;;;;;5056084;28;20466;-71
2022/01/11 10:32:45;;;;;;;33.00;14.27;;;1.10;99.90;;;;;;5055944;28;20026;-71
2022/01/11 10:35:23;;;;;;;31.45;15.07;;;1.10;99.90;;;;;;5056299;28;20420;-72
2022/01/11 10:37:55;;;;;;;27.33;13.20;;;1.10;99.90;;;;;;5054709;28;20029;-71
2022/01/11 10:40:38;;;;;;;26.17;13.15;;;1.10;99.90;;;;;;5056156;28;20104;-72
2022/01/11 10:43:10;;;;;;;25.23;12.48;;;1.10;99.90;;;;;;5055773;28;20052;-71
2022/01/11 10:46:03;;;;;;;22.40;12.05;;;1.10;99.90;;;;;;5056576;28;20378;-71
2022/01/11 10:48:36;;;;;;;20.40;10.75;;;1.10;99.90;;;;;;5053815;28;20096;-72
2022/01/11 10:51:02;;;;;;;25.52;13.40;;;1.10;99.90;;;;;;5055718;28;20021;-72
2022/01/11 10:53:38;;;;;;;26.85;13.82;;;1.10;99.90;;;;;;5055602;28;20055;-71
2022/01/11 10:56:05;;;;;;;28.40;14.07;;;1.20;99.90;;;;;;5055606;28;20405;-71
2022/01/11 10:58:36;;;;;;;33.10;15.05;;;1.20;99.90;;;;;;5055349;28;20029;-71
2022/01/11 11:01:04;;;;;;;29.38;15.00;;;1.20;99.90;;;;;;5055520;28;20028;-71
2022/01/11 11:03:32;;;;;;;27.95;14.40;;;1.20;99.90;;;;;;5055392;28;20091;-72
2022/01/11 11:06:11;;;;;;;27.08;14.63;;;1.30;99.90;;;;;;5055403;28;20477;-72
2022/01/11 11:08:42;;;;;;;33.42;15.70;;;1.30;99.90;;;;;;5055584;28;20056;-72
2022/01/11 11:11:12;;;;;;;32.25;16.13;;;1.40;99.90;;;;;;5055927;28;20101;-72
2022/01/11 11:13:43;;;;;;;28.25;14.82;;;1.30;99.90;;;;;;5055023;28;20495;-71
2022/01/11 11:16:16;;;;;;;31.85;15.00;;;1.30;99.90;;;;;;5053948;28;20056;-72
2022/01/11 11:18:55;;;;;;;25.75;13.48;;;1.30;99.90;;;;;;5053934;28;20033;-72
2022/01/11 11:21:27;;;;;;;27.75;14.23;;;1.30;99.90;;;;;;5055003;28;20047;-72
2022/01/11 11:23:59;;;;;;;25.70;12.40;;;1.30;99.90;;;;;;5054963;28;20043;-72
2022/01/11 11:26:27;;;;;;;27.45;12.98;;;1.20;99.90;;;;;;5053568;28;20114;-72
2022/01/11 11:28:53;;;;;;;27.52;13.02;;;1.20;99.90;;;;;;5055055;28;20385;-71
2022/01/11 11:31:21;;;;;;;23.85;11.75;;;1.20;99.90;;;;;;5055448;28;20044;-72
2022/01/11 11:33:47;;;;;;;23.10;11.55;;;1.20;99.90;;;;;;5054898;28;20017;-72
2022/01/11 11:36:15;;;;;;;17.98;9.98;;;1.30;99.90;;;;;;5054869;28;20017;-72
2022/01/11 11:38:47;;;;;;;20.30;10.00;;;1.30;99.90;;;;;;5054781;28;20079;-72
2022/01/11 11:41:14;;;;;;;17.60;9.18;;;1.30;99.90;;;;;;5053486;28;20485;-72
2022/01/11 11:43:39;;;;;;;17.95;9.30;;;1.40;99.90;;;;;;5054438;28;20392;-71
2022/01/11 11:46:05;;;;;;;19.95;10.32;;;1.40;99.90;;;;;;5054678;28;20021;-72
2022/01/11 11:48:31;;;;;;;18.83;9.30;;;1.50;99.90;;;;;;5054534;28;20032;-72
2022/01/11 11:51:10;;;;;;;18.02;9.95;;;1.50;99.90;;;;;;5054445;28;20021;-72
2022/01/11 11:53:39;;;;;;;21.55;10.25;;;1.60;99.90;;;;;;5055016;28;20515;-72
2022/01/11 11:56:15;;;;;;;24.65;12.90;;;1.60;99.90;;;;;;5054454;28;20052;-72
2022/01/11 11:58:46;;;;;;;25.50;13.45;;;1.60;99.90;;;;;;5054243;28;20043;-72
2022/01/11 12:01:41;;;;;;;24.40;14.43;;;1.70;99.90;;;;;;5054726;28;20028;-72
2022/01/11 12:04:10;;;;;;;28.30;14.82;;;1.70;99.90;;;;;;5054640;28;20029;-72
2022/01/11 12:06:35;;;;;;;23.80;12.60;;;1.70;99.90;;;;;;5054100;28;20047;-72
2022/01/11 12:09:06;;;;;;;21.90;12.60;;;1.80;99.90;;;;;;5053736;28;20025;-72
2022/01/11 12:11:37;;;;;;;19.10;10.30;;;1.90;99.90;;;;;;5054169;28;20025;-72
2022/01/11 12:14:04;;;;;;;20.23;10.93;;;2.00;99.90;;;;;;5054435;28;20465;-72
2022/01/11 12:16:34;;;;;;;19.48;11.02;;;2.10;99.90;;;;;;5054341;28;20036;-72
2022/01/11 12:19:11;;;;;;;20.10;11.30;;;2.20;99.90;;;;;;5054531;28;20028;-72
2022/01/11 12:22:05;;;;;;;21.15;11.65;;;2.30;99.90;;;;;;5053918;28;20055;-71
2022/01/11 12:24:39;;;;;;;20.88;11.57;;;2.40;99.90;;;;;;5045542;28;20044;-72
2022/01/11 12:27:08;;;;;;;23.58;12.32;;;2.50;99.90;;;;;;5053555;28;20174;-72
2022/01/11 12:29:35;;;;;;;24.30;12.38;;;2.50;99.90;;;;;;5054040;28;20478;-72
2022/01/11 12:32:07;;;;;;;22.25;12.02;;;2.60;99.90;;;;;;5053669;28;20474;-72
2022/01/11 12:34:48;;;;;;;22.02;12.05;;;2.50;99.90;;;;;;5053694;28;20414;-72
2022/01/11 12:37:34;;;;;;;65.20;28.40;;;2.40;99.90;;;;;;5053722;28;20017;-72
2022/01/11 12:40:01;;;;;;;133.00;55.45;;;2.30;99.90;;;;;;5053926;28;20025;-72